Time;durP1;ratioP1;P1;durP2;ratioP2;P2;SDS_P1;SDS_P2;PMS_P1;PMS_P2;Temp;Humidity;BMP_temperature;BMP_pressure;BME280_temperature;BME280_humidity;BME280_pressure;Samples;Min_cycle;Max_cycle;Signal;HPM_P1;HPM_P2
2022/05/14 00:00:30;;;;;;;7.00;3.95;;;;;;;15.91;100.00;99912.34;6206988;28;20056;-72
2022/05/14 00:03:33;;;;;;;6.70;4.13;;;;;;;15.85;100.00;99907.63;6207068;28;20108;-72
2022/05/14 00:06:34;;;;;;;7.45;4.18;;;;;;;15.89;100.00;99911.66;6223146;28;20042;-73
2022/05/14 00:09:35;;;;;;;5.05;3.97;;;;;;;15.95;100.00;99918.19;6223221;28;20541;-72
2022/05/14 00:15:55;;;;;;;8.93;4.03;;;;;;;15.94;100.00;99921.81;6224358;28;20046;-72
2022/05/14 00:18:56;;;;;;;7.68;4.20;;;;;;;15.77;100.00;99919.75;6239334;28;20057;-72
2022/05/14 00:21:56;;;;;;;7.90;4.55;;;;;;;15.75;100.00;99919.06;6222838;28;20046;-74
2022/05/14 00:24:57;;;;;;;7.88;4.22;;;;;;;15.59;100.00;99914.25;6222865;28;20057;-73
2022/05/14 00:27:58;;;;;;;6.20;4.82;;;;;;;15.42;100.00;99927.00;6222833;28;20120;-73
2022/05/14 00:30:59;;;;;;;7.10;5.20;;;;;;;15.38;100.00;99946.63;6199327;28;20135;-73
2022/05/14 00:34:00;;;;;;;7.50;5.00;;;;;;;15.34;100.00;99942.59;6248349;28;20041;-73
2022/05/14 00:37:01;;;;;;;8.57;6.25;;;;;;;15.41;100.00;99932.41;6230682;28;20049;-73
2022/05/14 00:40:27;;;;;;;8.43;5.63;;;;;;;15.46;100.00;99928.44;6214184;28;20171;-73
2022/05/14 00:43:29;;;;;;;8.25;5.18;;;;;;;15.57;100.00;99940.66;6248719;28;20080;-74
2022/05/14 00:46:30;;;;;;;;;;;;;;;15.69;100.00;99939.66;6248548;28;20065;-73
2022/05/14 00:49:34;;;;;;;5.35;4.40;;;;;;;15.73;100.00;99942.88;6246701;28;20373;-74
2022/05/14 00:52:35;;;;;;;8.13;5.32;;;;;;;15.77;100.00;99943.44;6247850;28;20508;-73
2022/05/14 00:55:38;;;;;;;10.02;5.88;;;;;;;15.77;100.00;99938.19;6247831;28;20049;-74
2022/05/14 00:58:41;;;;;;;8.57;5.85;;;;;;;15.78;100.00;99940.69;6246397;28;20080;-74
2022/05/14 01:01:43;;;;;;;9.10;5.78;;;;;;;15.70;100.00;99928.16;6246935;28;20049;-74
2022/05/14 01:04:45;;;;;;;;;;;;;;;15.69;100.00;99934.38;6246756;28;20053;-74
2022/05/14 01:07:51;;;;;;;10.85;6.32;;;;;;;15.79;100.00;99937.06;6229930;28;19928;-74
2022/05/14 01:10:52;;;;;;;9.88;5.95;;;;;;;15.85;100.00;99935.72;6230203;28;20107;-74
2022/05/14 01:13:54;;;;;;;10.27;6.10;;;;;;;15.87;100.00;99932.00;6247563;28;20041;-74
2022/05/14 01:16:55;;;;;;;9.45;6.32;;;;;;;15.90;100.00;99944.91;6247426;28;20079;-74
2022/05/14 01:19:55;;;;;;;10.13;6.28;;;;;;;15.95;100.00;99938.41;6246056;28;20037;-73
2022/05/14 01:23:14;;;;;;;12.18;6.45;;;;;;;15.94;100.00;99944.63;6247295;28;20042;-74
2022/05/14 01:26:27;;;;;;;11.85;6.20;;;;;;;15.86;100.00;99946.13;6247222;28;20497;-74
2022/05/14 01:29:29;;;;;;;8.82;6.22;;;;;;;15.87;100.00;99937.25;6246249;28;20041;-74
2022/05/14 01:32:30;;;;;;;9.05;6.38;;;;;;;15.80;100.00;99927.41;6246108;28;20080;-74
2022/05/14 01:35:33;;;;;;;8.15;6.10;;;;;;;15.73;100.00;99936.78;6229658;28;20052;-74
2022/05/14 01:38:35;;;;;;;7.65;5.88;;;;;;;15.80;100.00;99935.31;6245764;28;20076;-74
2022/05/14 01:41:36;;;;;;;8.25;6.22;;;;;;;15.78;100.00;99937.22;6245864;28;20083;-74
2022/05/14 01:44:37;;;;;;;6.72;5.45;;;;;;;15.77;100.00;99946.06;6245729;28;20482;-74
2022/05/14 01:47:38;;;;;;;9.45;7.30;;;;;;;15.83;100.00;99951.63;6229064;28;20061;-74
2022/05/14 01:50:41;;;;;;;8.57;6.10;;;;;;;15.82;100.00;99954.41;6245551;28;20046;-74
2022/05/14 01:53:42;;;;;;;9.93;6.53;;;;;;;15.70;100.00;99962.34;6246991;28;20061;-74
2022/05/14 01:56:43;;;;;;;9.20;6.30;;;;;;;15.70;100.00;99951.81;6246820;28;20041;-74
2022/05/14 01:59:44;;;;;;;8.25;5.95;;;;;;;15.62;100.00;99951.63;6245579;28;20403;-74
2022/05/14 02:02:45;;;;;;;10.73;6.13;;;;;;;15.58;100.00;99955.47;6229193;28;20416;-73
2022/05/14 02:05:46;;;;;;;9.68;6.32;;;;;;;15.48;100.00;99949.31;6246173;28;20099;-73
2022/05/14 02:08:47;;;;;;;8.82;6.05;;;;;;;15.56;100.00;99949.50;6250485;28;20049;-74
2022/05/14 02:11:48;;;;;;;11.95;5.95;;;;;;;15.46;100.00;99951.22;6267352;28;20060;-74
2022/05/14 02:14:49;;;;;;;9.50;5.70;;;;;;;15.51;100.00;99955.16;6233967;28;20053;-74
2022/05/14 02:17:50;;;;;;;8.27;6.22;;;;;;;15.46;100.00;99962.59;6233943;28;20049;-73
2022/05/14 02:20:51;;;;;;;8.63;6.20;;;;;;;15.41;100.00;99961.31;6250335;28;20045;-74
2022/05/14 02:23:53;;;;;;;8.87;6.43;;;;;;;15.41;100.00;99956.06;6251436;28;20045;-73
2022/05/14 02:26:54;;;;;;;11.70;6.07;;;;;;;15.39;100.00;99964.06;6233758;28;20080;-73
2022/05/14 02:29:55;;;;;;;8.93;6.03;;;;;;;15.37;100.00;99957.28;6251185;28;20091;-74
2022/05/14 02:32:56;;;;;;;8.38;5.50;;;;;;;15.28;100.00;99970.22;6250077;28;20111;-74
2022/05/14 02:35:58;;;;;;;12.27;5.97;;;;;;;15.36;100.00;99969.59;6250210;28;20037;-74
2022/05/14 02:38:59;;;;;;;11.63;5.78;;;;;;;15.35;100.00;99974.97;6250908;28;20037;-74
2022/05/14 02:41:59;;;;;;;8.93;6.05;;;;;;;15.39;100.00;99971.13;6249946;28;20069;-74
2022/05/14 02:45:00;;;;;;;9.70;5.78;;;;;;;15.32;100.00;99979.50;6250940;28;20474;-74
2022/05/14 02:48:01;;;;;;;9.55;6.10;;;;;;;15.36;100.00;99974.84;6233087;28;20069;-74
2022/05/14 02:51:02;;;;;;;8.65;5.55;;;;;;;15.36;100.00;99977.47;6250689;28;20456;-74
2022/05/14 02:54:03;;;;;;;6.60;5.88;;;;;;;15.27;100.00;99980.84;6266108;28;20092;-74
2022/05/14 02:57:04;;;;;;;12.13;5.55;;;;;;;15.31;100.00;99988.34;6233204;28;20045;-74
2022/05/14 03:00:08;;;;;;;7.75;6.25;;;;;;;15.26;100.00;99984.44;6249387;28;20052;-74
2022/05/14 03:03:09;;;;;;;9.32;6.00;;;;;;;15.33;100.00;99990.84;6249983;28;20052;-74
2022/05/14 03:06:10;;;;;;;10.05;6.72;;;;;;;15.33;100.00;99996.13;6233274;28;20557;-74
2022/05/14 03:09:11;;;;;;;10.77;6.53;;;;;;;15.32;100.00;99997.91;6250148;28;20214;-74
2022/05/14 03:12:13;;;;;;;11.80;7.00;;;;;;;15.40;100.00;100010.44;6250071;28;20057;-74
2022/05/14 03:15:14;;;;;;;10.02;6.68;;;;;;;15.42;100.00;100007.66;6249726;28;20402;-74
2022/05/14 03:18:15;;;;;;;11.60;7.13;;;;;;;15.31;100.00;100008.53;6232113;28;20137;-74
2022/05/14 03:21:16;;;;;;;10.10;6.43;;;;;;;15.40;100.00;100013.06;6233220;28;20449;-74
2022/05/14 03:24:18;;;;;;;11.45;6.45;;;;;;;15.40;100.00;100013.06;6266099;28;20057;-73
2022/05/14 03:27:19;;;;;;;;;;;;;;;15.41;100.00;100011.25;6251194;28;20478;-74
2022/05/14 03:30:19;;;;;;;10.35;5.47;;;;;;;15.40;100.00;100023.59;6233037;28;19921;-74
2022/05/14 03:33:20;;;;;;;9.18;5.63;;;;;;;15.43;100.00;100019.88;6233038;28;20053;-74
2022/05/14 03:36:21;;;;;;;8.82;5.10;;;;;;;15.48;100.00;100023.78;6232964;28;20136;-74
2022/05/14 03:39:21;;;;;;;9.00;5.18;;;;;;;15.42;100.00;100019.03;6249581;28;20059;-73
2022/05/14 03:42:22;;;;;;;6.63;4.55;;;;;;;15.45;100.00;100024.03;6250601;28;20076;-74
2022/05/14 03:45:23;;;;;;;10.68;5.10;;;;;;;15.52;100.00;100030.47;6248986;28;20494;-73
2022/05/14 03:48:25;;;;;;;12.50;4.20;;;;;;;15.57;100.00;100031.88;6250462;28;20128;-74
2022/05/14 03:51:28;;;;;;;6.13;4.10;;;;;;;15.55;100.00;100036.44;6232600;28;20494;-74
2022/05/14 03:54:29;;;;;;;7.65;4.05;;;;;;;15.60;100.00;100040.34;6250362;28;20087;-74
2022/05/14 03:57:30;;;;;;;7.63;3.83;;;;;;;15.43;100.00;100040.91;6248949;28;20140;-75
2022/05/14 04:00:31;;;;;;;8.38;4.22;;;;;;;15.45;100.00;100054.75;6216338;28;20057;-73
2022/05/14 04:03:34;;;;;;;5.70;3.63;;;;;;;15.35;100.00;100059.09;6232587;28;20456;-74
2022/05/14 04:06:35;;;;;;;6.18;3.55;;;;;;;15.53;100.00;100060.22;6248557;28;20056;-75
2022/05/14 04:09:35;;;;;;;7.22;3.97;;;;;;;15.47;100.00;100069.44;6248708;28;20413;-73
2022/05/14 04:12:36;;;;;;;6.90;3.70;;;;;;;15.53;100.00;100070.75;6232024;28;20110;-74
2022/05/14 04:15:38;;;;;;;7.32;4.03;;;;;;;15.57;100.00;100080.06;6265271;28;20046;-74
2022/05/14 04:18:39;;;;;;;5.72;3.70;;;;;;;15.52;99.98;100076.94;6264861;28;20053;-73
2022/05/14 04:21:40;;;;;;;8.57;3.83;;;;;;;15.50;100.00;100084.13;6214934;28;20057;-74
2022/05/14 04:24:41;;;;;;;6.35;3.85;;;;;;;15.51;99.36;100080.53;6247747;28;20041;-75
2022/05/14 04:27:41;;;;;;;5.38;3.40;;;;;;;15.56;97.23;100088.88;6231631;28;20045;-75
2022/05/14 04:30:43;;;;;;;8.43;3.83;;;;;;;15.71;97.64;100086.81;6280722;28;20112;-74
2022/05/14 04:33:44;;;;;;;7.60;3.78;;;;;;;15.65;95.76;100090.78;6199563;28;20140;-73
2022/05/14 04:36:45;;;;;;;6.00;3.50;;;;;;;15.76;94.78;100097.81;6264536;28;20416;-75
2022/05/14 04:39:46;;;;;;;9.80;3.67;;;;;;;15.83;93.60;100106.84;6231264;28;20049;-74
2022/05/14 04:42:46;;;;;;;5.75;3.40;;;;;;;15.86;89.06;100111.06;6231657;28;20125;-74
2022/05/14 04:45:47;;;;;;;8.15;3.35;;;;;;;15.98;89.67;100107.41;6280703;28;20046;-75
2022/05/14 04:48:48;;;;;;;6.68;3.28;;;;;;;15.94;88.53;100115.66;6247623;28;20057;-75
2022/05/14 04:51:49;;;;;;;6.10;3.30;;;;;;;15.96;86.35;100111.13;6231072;28;20107;-75
2022/05/14 04:54:50;;;;;;;6.18;3.28;;;;;;;16.00;84.67;100113.38;6247561;28;20095;-74
2022/05/14 04:57:50;;;;;;;5.80;3.30;;;;;;;16.00;82.37;100112.53;6264132;28;20218;-74
2022/05/14 05:00:51;;;;;;;12.68;3.42;;;;;;;16.12;82.03;100122.03;6231073;28;20053;-75
2022/05/14 05:03:52;;;;;;;6.85;3.10;;;;;;;16.28;81.30;100127.69;6246885;28;20048;-74
2022/05/14 05:06:53;;;;;;;9.27;3.25;;;;;;;16.30;79.63;100122.31;6247114;28;20061;-74
2022/05/14 05:09:53;;;;;;;4.10;2.70;;;;;;;16.36;76.80;100126.22;6247113;28;20124;-74
2022/05/14 05:12:54;;;;;;;14.10;3.70;;;;;;;16.31;74.50;100116.09;6247142;28;20054;-74
2022/05/14 05:15:56;;;;;;;6.38;2.95;;;;;;;16.41;74.04;100124.88;6247057;28;20080;-75
2022/05/14 05:18:56;;;;;;;4.57;2.90;;;;;;;16.54;74.20;100131.75;6263647;28;20490;-74
2022/05/14 05:21:57;;;;;;;4.43;2.80;;;;;;;16.55;71.10;100122.88;6263623;28;20305;-75
2022/05/14 05:24:58;;;;;;;5.47;2.80;;;;;;;16.54;69.79;100135.22;6246749;28;20045;-75
2022/05/14 05:27:59;;;;;;;5.60;2.70;;;;;;;16.75;69.15;100143.09;6247973;28;20033;-75
2022/05/14 05:31:01;;;;;;;16.20;4.40;;;;;;;16.80;65.14;100145.31;6246654;28;20410;-75
2022/05/14 05:34:02;;;;;;;8.00;2.45;;;;;;;16.78;63.32;100148.09;6230207;28;20100;-75
2022/05/14 05:37:03;;;;;;;8.15;2.20;;;;;;;16.83;60.37;100150.38;6248134;28;20053;-73
2022/05/14 05:40:05;;;;;;;16.20;2.75;;;;;;;16.85;59.94;100151.91;6262426;28;20057;-73
2022/05/14 05:43:08;;;;;;;7.50;2.53;;;;;;;16.96;59.80;100156.25;6247739;28;20045;-75
2022/05/14 05:46:11;;;;;;;6.32;2.10;;;;;;;17.04;58.56;100163.50;6229893;28;20057;-73
2022/05/14 05:49:11;;;;;;;;;;;;;;;17.16;58.18;100170.34;6230299;28;20119;-74
2022/05/14 05:52:12;;;;;;;9.35;2.40;;;;;;;17.13;56.17;100160.03;6229815;28;19921;-74
2022/05/14 05:58:32;;;;;;;5.18;2.10;;;;;;;17.38;56.28;100171.09;6265191;28;20103;-73
2022/05/14 06:01:34;;;;;;;4.32;2.03;;;;;;;17.35;54.48;100172.19;6213456;28;20421;-73
2022/05/14 06:04:36;;;;;;;22.85;5.40;;;;;;;17.53;53.03;100178.50;6245988;28;20049;-73
2022/05/14 06:07:38;;;;;;;12.18;2.40;;;;;;;17.60;53.45;100170.03;6242853;28;20049;-74
2022/05/14 06:10:39;;;;;;;11.93;2.50;;;;;;;17.61;52.57;100179.66;6224179;28;20061;-73
2022/05/14 06:13:42;;;;;;;6.32;1.80;;;;;;;17.80;52.23;100184.13;6205060;28;20056;-73
2022/05/14 06:16:44;;;;;;;8.73;2.00;;;;;;;17.82;52.33;100185.63;6237831;28;20076;-74
2022/05/14 06:19:45;;;;;;;9.75;1.98;;;;;;;18.00;51.96;100188.47;6220956;28;20077;-74
2022/05/14 06:22:46;;;;;;;6.38;1.90;;;;;;;18.18;52.27;100185.13;6205299;28;20533;-74
2022/05/14 06:25:47;;;;;;;4.55;1.80;;;;;;;18.24;49.69;100185.41;6204913;28;20054;-73
2022/05/14 06:28:48;;;;;;;12.98;2.08;;;;;;;18.27;49.12;100186.94;6202811;28;20053;-74
2022/05/14 06:31:49;;;;;;;7.07;2.28;;;;;;;18.27;51.16;100189.59;6243517;28;20409;-74
2022/05/14 06:34:52;;;;;;;7.13;2.92;;;;;;;18.32;49.36;100189.97;6205221;28;20045;-75
2022/05/14 06:37:59;;;;;;;19.35;2.17;;;;;;;18.30;50.25;100187.50;6221329;28;20061;-75
2022/05/14 06:41:04;;;;;;;7.68;2.30;;;;;;;18.49;50.27;100196.34;6237795;28;20131;-75
2022/05/14 06:44:05;;;;;;;7.47;2.03;;;;;;;18.71;51.27;100193.38;6224077;28;20111;-75
2022/05/14 06:47:06;;;;;;;11.68;2.05;;;;;;;18.78;46.58;100203.38;6245212;28;20053;-74
2022/05/14 06:50:08;;;;;;;9.30;1.90;;;;;;;18.70;48.53;100193.56;6212356;28;20500;-75
2022/05/14 06:53:10;;;;;;;10.65;2.00;;;;;;;18.82;48.96;100197.72;6247725;28;20054;-75
2022/05/14 06:56:13;;;;;;;6.18;2.33;;;;;;;19.00;46.22;100197.78;6233592;28;20179;-75
2022/05/14 06:59:14;;;;;;;11.07;1.95;;;;;;;19.20;45.99;100201.22;6249536;28;20053;-75
2022/05/14 07:02:17;;;;;;;8.20;2.10;;;;;;;19.32;46.54;100207.16;6245645;28;20144;-74
2022/05/14 07:08:38;;;;;;;7.57;2.00;;;;;;;18.98;47.45;100209.50;6210744;28;20057;-74
2022/05/14 07:11:41;;;;;;;8.57;2.37;;;;;;;18.96;46.40;100207.00;6191924;28;20049;-73
2022/05/14 07:14:44;;;;;;;15.93;2.50;;;;;;;19.21;45.07;100212.59;6224698;28;20049;-74
2022/05/14 07:17:45;;;;;;;13.43;2.50;;;;;;;19.29;45.64;100197.69;6230733;28;20045;-73
2022/05/14 07:20:45;;;;;;;7.77;1.60;;;;;;;19.41;42.81;100206.25;6224538;28;20046;-74
2022/05/14 07:23:46;;;;;;;13.05;2.10;;;;;;;19.44;43.59;100203.34;6225498;28;20042;-74
2022/05/14 07:26:50;;;;;;;10.93;2.25;;;;;;;19.90;44.39;100213.94;6224122;28;20083;-74
2022/05/14 07:29:51;;;;;;;13.43;2.45;;;;;;;20.01;42.62;100207.59;6207876;28;20050;-73
2022/05/14 07:32:52;;;;;;;11.52;1.80;;;;;;;20.16;41.59;100213.19;6230577;28;20049;-73
2022/05/14 07:35:55;;;;;;;12.17;2.20;;;;;;;20.38;41.89;100206.59;6232407;28;20080;-73
2022/05/14 07:39:00;;;;;;;19.00;1.88;;;;;;;20.31;41.69;100211.69;6248427;28;20631;-74
2022/05/14 07:42:06;;;;;;;7.60;1.95;;;;;;;20.29;41.72;100224.25;6250177;28;20030;-73
2022/05/14 07:45:10;;;;;;;13.43;2.20;;;;;;;20.42;40.06;100222.03;6231811;28;20477;-74
2022/05/14 07:48:35;;;;;;;6.75;1.75;;;;;;;20.26;40.34;100224.53;6248286;28;20066;-73
2022/05/14 07:51:37;;;;;;;8.35;2.28;;;;;;;19.73;41.41;100224.38;6248225;28;20056;-74
2022/05/14 07:54:38;;;;;;;8.38;1.60;;;;;;;19.30;41.93;100231.09;6281423;28;20064;-73
2022/05/14 07:57:39;;;;;;;8.70;1.90;;;;;;;19.39;43.73;100232.03;6215347;28;20144;-73
2022/05/14 08:00:40;;;;;;;9.43;1.83;;;;;;;19.47;43.09;100236.59;6226686;28;20088;-74
2022/05/14 08:03:41;;;;;;;12.32;2.60;;;;;;;20.04;44.01;100239.91;6238939;28;20096;-75
2022/05/14 08:06:42;;;;;;;9.80;2.00;;;;;;;20.32;42.66;100242.47;6190986;28;20050;-74
2022/05/14 08:09:43;;;;;;;9.02;2.25;;;;;;;20.76;43.51;100242.53;6239917;28;20054;-75
2022/05/14 08:12:47;;;;;;;6.63;2.40;;;;;;;21.04;41.00;100250.34;6239649;28;20057;-74
2022/05/14 08:15:49;;;;;;;5.43;2.45;;;;;;;20.86;40.94;100243.28;6223307;28;20052;-75
2022/05/14 08:18:50;;;;;;;8.65;2.17;;;;;;;21.09;42.87;100246.22;6223244;28;20049;-74
2022/05/14 08:25:10;;;;;;;10.00;2.45;;;;;;;21.12;42.44;100250.38;6241838;28;20057;-74
2022/05/14 08:28:11;;;;;;;9.95;2.00;;;;;;;21.38;37.76;100244.22;6239430;28;20061;-74
2022/05/14 08:31:12;;;;;;;6.00;1.80;;;;;;;21.17;37.78;100245.44;6190350;28;20054;-74
2022/05/14 08:34:13;;;;;;;11.53;2.00;;;;;;;21.46;37.08;100241.63;6239375;28;20148;-74
2022/05/14 08:37:14;;;;;;;8.23;1.50;;;;;;;21.60;37.71;100245.47;6205909;28;20053;-74
2022/05/14 08:40:20;;;;;;;8.18;1.70;;;;;;;21.29;35.35;100241.53;6206298;28;20478;-74
2022/05/14 08:43:28;;;;;;;3.65;1.55;;;;;;;21.40;34.87;100244.91;6222315;28;20144;-74
2022/05/14 08:46:32;;;;;;;3.72;1.13;;;;;;;21.49;34.71;100249.28;6223573;28;20526;-74
2022/05/14 08:49:38;;;;;;;4.65;1.08;;;;;;;21.84;35.06;100250.88;6206033;28;20474;-74
2022/05/14 08:52:39;;;;;;;5.43;1.20;;;;;;;21.81;33.60;100245.09;6222112;28;20467;-74
2022/05/14 08:55:46;;;;;;;5.90;1.67;;;;;;;21.53;34.84;100253.25;6206064;28;20050;-74
2022/05/14 08:58:57;;;;;;;9.90;1.48;;;;;;;21.70;32.84;100249.69;6222273;28;20054;-74
2022/05/14 09:02:11;;;;;;;1.90;1.33;;;;;;;21.80;32.25;100254.84;6221967;28;20069;-75
2022/05/14 09:05:30;;;;;;;8.20;1.25;;;;;;;21.75;32.61;100253.69;6238470;28;20056;-74
2022/05/14 09:08:31;;;;;;;5.28;1.23;;;;;;;22.04;31.60;100246.13;6238468;28;20062;-75
2022/05/14 09:11:51;;;;;;;8.25;1.20;;;;;;;22.35;32.90;100250.84;6238566;28;20418;-76
2022/05/14 09:14:58;;;;;;;6.13;1.05;;;;;;;22.67;33.21;100246.50;6221624;28;20045;-76
2022/05/14 09:18:13;;;;;;;4.10;1.10;;;;;;;23.05;33.13;100244.16;6205433;28;20057;-74
2022/05/14 09:21:22;;;;;;;2.70;1.13;;;;;;;22.99;32.94;100245.63;6238038;28;20107;-74
2022/05/14 09:24:26;;;;;;;9.50;1.02;;;;;;;22.59;32.91;100238.53;6238070;28;20414;-75
2022/05/14 09:27:34;;;;;;;4.13;1.38;;;;;;;22.86;32.50;100234.69;6221720;28;20406;-74
2022/05/14 09:30:53;;;;;;;5.57;1.27;;;;;;;22.96;32.84;100229.16;6205543;28;20081;-74
2022/05/14 09:34:21;;;;;;;7.78;1.33;;;;;;;23.26;35.22;100224.97;6254379;28;20074;-74
2022/05/14 09:37:24;;;;;;;7.57;1.10;;;;;;;23.00;32.99;100234.00;6240414;28;20080;-75
2022/05/14 09:40:28;;;;;;;7.07;1.20;;;;;;;22.88;32.45;100230.84;6229648;28;20521;-74
2022/05/14 09:43:36;;;;;;;5.95;1.30;;;;;;;22.33;32.85;100228.91;6278920;28;20060;-74
2022/05/14 09:46:37;;;;;;;4.03;1.30;;;;;;;22.24;33.69;100227.25;6246881;28;20041;-75
2022/05/14 09:49:41;;;;;;;2.47;1.30;;;;;;;22.45;34.73;100229.41;6229481;28;20501;-75
2022/05/14 09:52:54;;;;;;;5.95;1.20;;;;;;;23.27;33.94;100238.09;6259111;28;20533;-75
2022/05/14 09:56:02;;;;;;;4.30;1.40;;;;;;;21.99;33.30;100229.84;6204595;28;20506;-75
2022/05/14 09:59:30;;;;;;;2.90;1.23;;;;;;;21.91;34.04;100229.84;6221225;28;20042;-74
2022/05/14 10:02:50;;;;;;;4.03;1.45;;;;;;;22.70;32.97;100230.22;6220918;28;20114;-75
2022/05/14 10:06:02;;;;;;;2.47;1.02;;;;;;;22.75;36.34;100222.56;6220914;28;20121;-74
2022/05/14 10:09:24;;;;;;;2.33;1.48;;;;;;;23.69;31.01;100223.59;6204605;28;20060;-74
2022/05/14 10:12:43;;;;;;;4.35;1.83;;;;;;;24.02;30.85;100215.44;6222251;28;20057;-74
2022/05/14 10:16:03;;;;;;;5.45;1.58;;;;;;;24.15;31.72;100217.50;6222086;28;20078;-74
2022/05/14 10:19:26;;;;;;;4.25;1.30;;;;;;;24.32;31.07;100227.03;6222097;28;20052;-75
2022/05/14 10:26:51;;;;;;;4.85;1.48;;;;;;;24.53;30.57;100214.91;6220737;28;20542;-75
2022/05/14 10:30:08;;;;;;;3.67;1.40;;;;;;;24.61;30.39;100212.16;6225549;28;20053;-74
2022/05/14 10:33:18;;;;;;;3.53;1.73;;;;;;;24.26;31.47;100208.28;6226163;28;20046;-74
2022/05/14 10:36:33;;;;;;;6.63;1.60;;;;;;;23.80;32.04;100198.41;6227470;28;20050;-74
2022/05/14 10:39:46;;;;;;;2.88;1.55;;;;;;;23.10;32.52;100201.88;6246242;28;20050;-76
2022/05/14 10:42:47;;;;;;;2.40;1.27;;;;;;;23.41;33.73;100201.09;6231867;28;20050;-76
2022/05/14 10:45:51;;;;;;;7.23;1.60;;;;;;;24.45;32.29;100197.09;6226618;28;20042;-76
2022/05/14 10:48:55;;;;;;;4.05;1.55;;;;;;;24.84;31.56;100204.09;6249772;28;20282;-76
2022/05/14 10:51:56;;;;;;;6.80;1.50;;;;;;;25.01;31.39;100201.25;6250949;28;20041;-77
2022/05/14 10:54:57;;;;;;;14.73;2.00;;;;;;;24.23;32.86;100201.44;6233112;28;20064;-76
2022/05/14 10:58:07;;;;;;;3.47;1.33;;;;;;;24.20;32.31;100207.16;6249581;28;20516;-76
2022/05/14 11:01:34;;;;;;;4.10;1.38;;;;;;;25.15;31.08;100187.06;6282589;28;20045;-76
2022/05/14 11:04:43;;;;;;;6.65;1.73;;;;;;;24.61;32.53;100203.34;6233855;28;20056;-76
2022/05/14 11:07:44;;;;;;;4.85;1.80;;;;;;;24.09;32.45;100200.41;6250616;28;20064;-75
2022/05/14 11:10:44;;;;;;;3.80;2.00;;;;;;;23.42;33.71;100203.59;6249451;28;20038;-76
2022/05/14 11:14:06;;;;;;;4.57;1.80;;;;;;;24.31;33.09;100205.88;6232536;28;20050;-76
2022/05/14 11:17:32;;;;;;;10.35;2.00;;;;;;;24.90;32.90;100207.88;6232786;28;20132;-76
2022/05/14 11:20:33;;;;;;;4.45;1.52;;;;;;;24.51;32.19;100201.75;6244147;28;20450;-76
2022/05/14 11:23:47;;;;;;;3.90;1.60;;;;;;;24.43;32.23;100200.97;6248869;28;20053;-76
2022/05/14 11:26:54;;;;;;;5.28;2.22;;;;;;;25.46;31.24;100192.19;6248831;28;20565;-76
2022/05/14 11:30:00;;;;;;;7.38;1.92;;;;;;;24.97;33.15;100194.63;6248695;28;20064;-76
2022/05/14 11:33:06;;;;;;;5.47;1.85;;;;;;;23.47;33.82;100190.59;6281978;28;20076;-75
2022/05/14 11:36:11;;;;;;;5.13;2.03;;;;;;;23.73;33.80;100190.28;6248756;28;20520;-76
2022/05/14 11:39:24;;;;;;;6.90;2.10;;;;;;;23.40;33.89;100199.47;6247367;28;20099;-76
2022/05/14 11:42:31;;;;;;;8.30;1.70;;;;;;;24.51;32.78;100192.91;6248470;28;20136;-75
2022/05/14 11:45:33;;;;;;;5.45;1.90;;;;;;;24.97;35.03;100190.09;6264973;28;20113;-76
2022/05/14 11:48:43;;;;;;;4.57;1.80;;;;;;;24.83;32.15;100191.78;6247967;28;20061;-76
2022/05/14 11:51:47;;;;;;;7.47;1.70;;;;;;;24.23;33.53;100203.28;6231992;28;20072;-75
2022/05/14 11:55:01;;;;;;;3.30;1.70;;;;;;;24.52;33.14;100191.91;6231644;28;20064;-75
2022/05/14 11:58:18;;;;;;;4.57;1.80;;;;;;;24.54;34.27;100189.88;6231764;28;20045;-77
2022/05/14 12:01:24;;;;;;;5.88;2.20;;;;;;;24.45;32.42;100190.94;6249303;28;20065;-76
2022/05/14 12:04:31;;;;;;;6.05;1.70;;;;;;;24.36;33.00;100187.53;6249341;28;20486;-76
2022/05/14 12:07:41;;;;;;;4.55;1.73;;;;;;;24.67;32.11;100194.59;6247873;28;20049;-76
2022/05/14 12:11:28;;;;;;;5.70;1.80;;;;;;;25.20;31.10;100181.16;6249278;28;20041;-78
2022/05/14 12:14:32;;;;;;;4.20;1.85;;;;;;;25.82;33.87;100171.81;6205352;28;20057;-78
2022/05/14 12:17:34;;;;;;;8.57;1.77;;;;;;;25.79;30.18;100169.53;6238642;28;20144;-76
2022/05/14 12:20:35;;;;;;;5.15;2.40;;;;;;;25.99;30.61;100167.91;6247813;28;20045;-76
2022/05/14 12:23:46;;;;;;;5.18;1.90;;;;;;;25.40;31.46;100166.25;6264217;28;20391;-76
2022/05/14 12:26:47;;;;;;;3.83;1.67;;;;;;;25.25;31.81;100166.28;6280475;28;20513;-76
2022/05/14 12:33:11;;;;;;;11.32;2.50;;;;;;;25.58;32.01;100155.16;6248708;28;20033;-76
2022/05/14 12:33:38;;;;;;;7.57;2.13;;;;;;;25.39;31.95;100156.59;6247263;28;20410;-75
2022/05/14 12:36:46;;;;;;;4.95;1.85;;;;;;;25.69;31.49;100151.13;6263571;28;20049;-76
2022/05/14 12:39:50;;;;;;;9.13;2.20;;;;;;;25.75;31.89;100147.72;6230788;28;20118;-76
2022/05/14 12:42:52;;;;;;;5.68;1.92;;;;;;;25.17;33.23;100147.66;6280258;28;20053;-76
2022/05/14 12:46:10;;;;;;;6.47;2.10;;;;;;;25.01;32.30;100146.00;6247012;28;20049;-76
2022/05/14 12:49:23;;;;;;;3.55;2.00;;;;;;;24.39;34.23;100143.66;6229913;28;20068;-76
2022/05/14 12:52:32;;;;;;;3.75;2.08;;;;;;;24.50;33.75;100152.09;6230476;28;20045;-76
2022/05/14 12:55:43;;;;;;;5.95;1.90;;;;;;;23.72;35.19;100151.34;6246634;28;20509;-76
2022/05/14 12:58:45;;;;;;;5.82;2.17;;;;;;;24.24;34.83;100141.78;6246763;28;20049;-76
2022/05/14 13:01:48;;;;;;;3.78;2.05;;;;;;;23.84;35.50;100151.75;6246466;28;20060;-76
2022/05/14 13:05:01;;;;;;;4.57;1.95;;;;;;;23.78;35.07;100141.81;6263217;28;20049;-76
2022/05/14 13:08:13;;;;;;;6.03;1.88;;;;;;;23.90;34.96;100150.22;6230009;28;20099;-76
2022/05/14 13:11:36;;;;;;;4.60;1.80;;;;;;;24.00;36.88;100137.50;6247786;28;20053;-76
2022/05/14 13:14:38;;;;;;;5.90;2.25;;;;;;;24.30;36.91;100133.06;6246382;28;20057;-76
2022/05/14 13:17:41;;;;;;;4.50;2.22;;;;;;;24.72;34.39;100123.66;6230044;28;20052;-74
2022/05/14 13:20:42;;;;;;;5.72;2.00;;;;;;;24.19;34.86;100119.34;6213491;28;20050;-74
2022/05/14 13:24:05;;;;;;;6.78;2.08;;;;;;;24.38;36.79;100123.31;6213792;28;20079;-74
2022/05/14 13:27:11;;;;;;;6.28;2.10;;;;;;;24.74;35.78;100112.81;6229542;28;20058;-74
2022/05/14 13:30:15;;;;;;;11.05;2.28;;;;;;;24.98;37.65;100102.84;6247428;28;20034;-74
2022/05/14 13:33:42;;;;;;;7.38;2.15;;;;;;;24.32;36.05;100108.91;6245943;28;20059;-74
2022/05/14 13:40:33;;;;;;;5.05;2.25;;;;;;;23.82;37.35;100097.00;6265154;28;20052;-74
2022/05/14 13:43:37;;;;;;;6.80;2.30;;;;;;;23.93;36.86;100091.28;6262438;28;20498;-74
2022/05/14 13:46:49;;;;;;;3.65;2.00;;;;;;;24.20;38.92;100086.38;6247024;28;20195;-75
2022/05/14 13:49:54;;;;;;;3.70;2.10;;;;;;;23.58;38.11;100098.84;6196916;28;20077;-74
2022/05/14 13:52:55;;;;;;;4.68;2.30;;;;;;;23.67;38.05;100087.09;6180794;28;20077;-74
2022/05/14 13:56:22;;;;;;;5.68;2.40;;;;;;;23.86;37.55;100087.66;6196639;28;20050;-74
2022/05/14 13:59:32;;;;;;;9.60;2.38;;;;;;;24.18;38.98;100086.53;6196813;28;20065;-75
2022/05/14 14:02:33;;;;;;;13.63;2.80;;;;;;;24.36;38.55;100080.88;6195973;28;20149;-74
2022/05/14 14:05:36;;;;;;;6.65;2.20;;;;;;;24.27;38.27;100084.63;6164601;28;20097;-74
2022/05/14 14:08:37;;;;;;;6.18;2.10;;;;;;;24.14;36.81;100078.06;6164670;28;20396;-74
2022/05/14 14:11:41;;;;;;;7.15;2.83;;;;;;;24.20;38.73;100073.03;6196828;28;20048;-74
2022/05/14 14:14:42;;;;;;;7.18;2.22;;;;;;;24.29;37.86;100077.25;6180459;28;20062;-74
2022/05/14 14:17:43;;;;;;;;;;;;;;;24.29;38.42;100061.25;6164909;28;20042;-74
2022/05/14 14:20:47;;;;;;;4.03;2.30;;;;;;;24.33;39.14;100059.88;6196663;28;20033;-74
2022/05/14 14:23:52;;;;;;;4.22;2.30;;;;;;;23.70;39.61;100057.47;6180403;28;20074;-74
2022/05/14 14:26:53;;;;;;;7.88;2.80;;;;;;;23.77;38.33;100056.78;6196255;28;20050;-74
2022/05/14 14:29:57;;;;;;;4.15;2.33;;;;;;;23.73;38.55;100054.41;6180505;28;20070;-74
2022/05/14 14:32:59;;;;;;;4.22;2.13;;;;;;;23.90;38.22;100056.97;6197649;28;20407;-74
2022/05/14 14:36:01;;;;;;;6.97;2.85;;;;;;;24.09;39.45;100045.81;6196298;28;20050;-75
2022/05/14 14:39:04;;;;;;;5.25;3.15;;;;;;;23.70;38.10;100044.13;6196480;28;20045;-74